EGGD/BRS METAR and TAF weather

Enter ICAO airport designator
Station Type Date Time Source
EGGD METAR 2024/04/15 07:50 UTC NOAA

EGGD 150750Z AUTO 27015KT 9999 FEW032/// BKN039/// //////CB 06/05 Q1006


Station Type Date Time Source
EGGD Decoded METAR 2024/04/15 07:50 UTC NOAA

Bristol / Lulsgate , United Kingdom (EGGD) 51-23N 002-43W
Apr 15, 2024 - 03:50 AM EDT / 2024.04.15 0750 UTC
Wind: from the W (270 degrees) at 17 MPH (15 KT):0
Visibility: greater than 7 mile(s):0
Sky conditions: mostly cloudy
Weather: Cumulonimbus clouds observed
Temperature: 42 F (6 C)
Dew Point: 41 F (5 C)
Relative Humidity: 93%
Pressure (altimeter): 29.71 in. Hg (1006 hPa)
ob: EGGD 150750Z AUTO 27015KT 9999 FEW032/// BKN039/// //////CB 06/05 Q1006
cycle: 8

Station Type Date Time Source
EGGD TAF 2024/04/15 06:59 UTC NOAA